Montrose, Ohio
Current Conditions -  °F | °C
As of 6:54 AM on Wednesday 28 Jan 2015 (Local Time) from KAKR Reporting Station
Haze Haze  
Wind Chill:   Ceiling: Unl
Heat Index:   Visibility: 1.2mi
Dew Point: -2°   Wind: 0mph
Humidity: 76%   Direction: NA
Pressure: 30.27"   Gusts: NA
Location:  41.1631°N, 81.6352°W
Report Text: KAKR 281154Z AUTO 00000KT 1 1/4SM HZ CLR M16/M19 A3027 RMK AO2 SLP271 I1000 I6001 T11561189 11089 21167 53011 $
Loading
Personal Weather Stations






























Interactive Weather Map New forecast layout! Learn more

10-Day Weather Forecast

Advertisements
Track Severe Weather on mobile